sensor_id;sensor_type;location;lat;lon;timestamp;pressure;altitude;pressure_sealevel;temperature;humidity
77631;BME280;66798;47.370;8.552;2023-04-25T06:16:00;96082.88;;;8.52;60.09
77631;BME280;66798;47.370;8.552;2023-04-25T06:18:26;96086.06;;;8.49;60.73
77631;BME280;66798;47.370;8.552;2023-04-25T06:20:51;96098.88;;;8.45;61.42
77631;BME280;66798;47.370;8.552;2023-04-25T06:23:17;96102.81;;;8.38;64.04
77631;BME280;66798;47.370;8.552;2023-04-25T06:25:42;96113.56;;;7.85;66.67
77631;BME280;66798;47.370;8.552;2023-04-25T06:28:08;96116.38;;;7.53;69.13
77631;BME280;66798;47.370;8.552;2023-04-25T06:30:33;96133.31;;;7.25;71.55
77631;BME280;66798;47.370;8.552;2023-04-25T06:32:58;96140.50;;;6.92;73.32
77631;BME280;66798;47.370;8.552;2023-04-25T06:35:24;96143.63;;;6.46;75.79
77631;BME280;66798;47.370;8.552;2023-04-25T06:37:49;96151.50;;;6.19;77.54
77631;BME280;66798;47.370;8.552;2023-04-25T06:40:15;96149.38;;;6.11;79.85
77631;BME280;66798;47.370;8.552;2023-04-25T06:42:42;96145.16;;;6.10;79.46
77631;BME280;66798;47.370;8.552;2023-04-25T06:45:08;96145.28;;;6.20;80.85
77631;BME280;66798;47.370;8.552;2023-04-25T06:47:33;96149.22;;;6.23;79.37
77631;BME280;66798;47.370;8.552;2023-04-25T06:49:59;96147.34;;;6.18;78.12
77631;BME280;66798;47.370;8.552;2023-04-25T06:52:24;96138.63;;;6.07;78.67
77631;BME280;66798;47.370;8.552;2023-04-25T06:54:50;96132.34;;;6.03;79.21
77631;BME280;66798;47.370;8.552;2023-04-25T06:57:15;96144.59;;;6.03;78.95
77631;BME280;66798;47.370;8.552;2023-04-25T06:59:41;96130.06;;;5.85;79.72
77631;BME280;66798;47.370;8.552;2023-04-25T07:02:06;96128.69;;;6.04;79.93
77631;BME280;66798;47.370;8.552;2023-04-25T07:04:32;96124.44;;;5.98;78.67
77631;BME280;66798;47.370;8.552;2023-04-25T07:06:57;96123.50;;;6.09;78.20
77631;BME280;66798;47.370;8.552;2023-04-25T07:09:23;96124.94;;;6.22;80.08
77631;BME280;66798;47.370;8.552;2023-04-25T07:11:48;96125.53;;;6.34;78.59
77631;BME280;66798;47.370;8.552;2023-04-25T07:14:14;96120.13;;;6.46;79.70
77631;BME280;66798;47.370;8.552;2023-04-25T07:16:40;96124.09;;;6.59;78.11
77631;BME280;66798;47.370;8.552;2023-04-25T07:19:06;96114.81;;;6.84;78.07
77631;BME280;66798;47.370;8.552;2023-04-25T07:21:31;96106.94;;;6.73;77.57
77631;BME280;66798;47.370;8.552;2023-04-25T07:23:57;96115.84;;;6.72;76.77
77631;BME280;66798;47.370;8.552;2023-04-25T07:26:22;96122.22;;;7.02;77.66
77631;BME280;66798;47.370;8.552;2023-04-25T07:28:48;96124.09;;;7.12;77.88
77631;BME280;66798;47.370;8.552;2023-04-25T07:31:16;96128.09;;;7.25;75.13
77631;BME280;66798;47.370;8.552;2023-04-25T07:33:44;96131.59;;;7.56;74.63
77631;BME280;66798;47.370;8.552;2023-04-25T07:36:10;96130.38;;;7.06;75.96
77631;BME280;66798;47.370;8.552;2023-04-25T07:38:35;96137.50;;;7.20;75.34
77631;BME280;66798;47.370;8.552;2023-04-25T07:41:01;96141.94;;;7.20;74.57
77631;BME280;66798;47.370;8.552;2023-04-25T07:43:26;96151.31;;;7.11;75.62
77631;BME280;66798;47.370;8.552;2023-04-25T07:45:52;96140.75;;;6.95;76.30
77631;BME280;66798;47.370;8.552;2023-04-25T07:48:18;96145.91;;;6.75;76.37
77631;BME280;66798;47.370;8.552;2023-04-25T07:50:44;96142.78;;;6.83;76.25
77631;BME280;66798;47.370;8.552;2023-04-25T07:53:10;96156.09;;;6.76;77.96
77631;BME280;66798;47.370;8.552;2023-04-25T07:55:36;96153.34;;;6.98;76.94
77631;BME280;66798;47.370;8.552;2023-04-25T07:58:05;96165.63;;;7.03;76.61
77631;BME280;66798;47.370;8.552;2023-04-25T08:00:30;96172.28;;;7.26;77.51
77631;BME280;66798;47.370;8.552;2023-04-25T08:02:56;96171.28;;;7.37;76.29
77631;BME280;66798;47.370;8.552;2023-04-25T08:05:21;96175.69;;;7.27;75.68
77631;BME280;66798;47.370;8.552;2023-04-25T08:07:47;96177.50;;;7.26;76.85
77631;BME280;66798;47.370;8.552;2023-04-25T08:10:12;96185.50;;;7.72;76.66
77631;BME280;66798;47.370;8.552;2023-04-25T08:12:38;96195.06;;;8.35;74.62
77631;BME280;66798;47.370;8.552;2023-04-25T08:15:04;96191.63;;;8.29;73.09
77631;BME280;66798;47.370;8.552;2023-04-25T08:17:30;96190.31;;;8.26;72.53
77631;BME280;66798;47.370;8.552;2023-04-25T08:19:56;96192.97;;;8.57;71.11
77631;BME280;66798;47.370;8.552;2023-04-25T08:22:22;96194.50;;;8.89;71.54
77631;BME280;66798;47.370;8.552;2023-04-25T08:24:47;96199.19;;;9.07;70.76
77631;BME280;66798;47.370;8.552;2023-04-25T08:27:13;96199.13;;;9.88;69.05
77631;BME280;66798;47.370;8.552;2023-04-25T08:29:38;96199.41;;;10.31;67.81
77631;BME280;66798;47.370;8.552;2023-04-25T08:32:04;96197.34;;;9.78;68.10
77631;BME280;66798;47.370;8.552;2023-04-25T08:34:29;96199.72;;;9.74;69.81
77631;BME280;66798;47.370;8.552;2023-04-25T08:36:55;96204.50;;;11.58;65.60
77631;BME280;66798;47.370;8.552;2023-04-25T08:39:20;96204.47;;;12.01;60.84
77631;BME280;66798;47.370;8.552;2023-04-25T08:41:46;96211.78;;;11.66;59.36
77631;BME280;66798;47.370;8.552;2023-04-25T08:44:13;96216.00;;;11.43;62.73
77631;BME280;66798;47.370;8.552;2023-04-25T08:46:40;96214.63;;;10.34;63.39
77631;BME280;66798;47.370;8.552;2023-04-25T08:49:07;96227.94;;;11.11;62.31
77631;BME280;66798;47.370;8.552;2023-04-25T08:51:36;96227.94;;;10.48;63.96
77631;BME280;66798;47.370;8.552;2023-04-25T08:54:11;96220.75;;;11.84;60.93
77631;BME280;66798;47.370;8.552;2023-04-25T08:56:45;96231.16;;;12.37;58.98
77631;BME280;66798;47.370;8.552;2023-04-25T08:59:12;96231.00;;;11.90;58.67
77631;BME280;66798;47.370;8.552;2023-04-25T09:01:38;96236.47;;;12.84;56.83
77631;BME280;66798;47.370;8.552;2023-04-25T09:04:03;96236.94;;;11.29;60.44
77631;BME280;66798;47.370;8.552;2023-04-25T09:06:31;96254.31;;;10.72;62.76
77631;BME280;66798;47.370;8.552;2023-04-25T09:09:08;96255.69;;;11.22;62.13
77631;BME280;66798;47.370;8.552;2023-04-25T09:11:35;96258.25;;;11.33;61.75
77631;BME280;66798;47.370;8.552;2023-04-25T09:14:30;96258.66;;;10.52;61.88
77631;BME280;66798;47.370;8.552;2023-04-25T09:19:35;96274.84;;;9.75;65.20
77631;BME280;66798;47.370;8.552;2023-04-25T09:22:03;96270.94;;;9.63;65.72
77631;BME280;66798;47.370;8.552;2023-04-25T09:24:37;96276.34;;;9.92;64.47
77631;BME280;66798;47.370;8.552;2023-04-25T09:27:07;96271.16;;;10.26;64.20
77631;BME280;66798;47.370;8.552;2023-04-25T09:29:38;96273.28;;;9.69;65.96
77631;BME280;66798;47.370;8.552;2023-04-25T09:32:24;96288.81;;;9.61;66.08
77631;BME280;66798;47.370;8.552;2023-04-25T09:34:54;96290.94;;;9.48;65.82
77631;BME280;66798;47.370;8.552;2023-04-25T09:39:52;96286.13;;;10.36;64.31
77631;BME280;66798;47.370;8.552;2023-04-25T09:42:25;96284.66;;;10.59;63.64
77631;BME280;66798;47.370;8.552;2023-04-25T09:44:53;96296.56;;;10.86;63.13
77631;BME280;66798;47.370;8.552;2023-04-25T09:47:19;96295.50;;;11.69;59.05
77631;BME280;66798;47.370;8.552;2023-04-25T09:49:48;96299.88;;;11.79;58.66
77631;BME280;66798;47.370;8.552;2023-04-25T09:52:18;96295.28;;;11.65;58.36
77631;BME280;66798;47.370;8.552;2023-04-25T09:54:46;96300.72;;;11.74;58.53
77631;BME280;66798;47.370;8.552;2023-04-25T09:57:20;96296.81;;;11.18;60.27
77631;BME280;66798;47.370;8.552;2023-04-25T09:59:51;96299.56;;;11.61;58.41
77631;BME280;66798;47.370;8.552;2023-04-25T10:02:18;96296.66;;;11.04;60.08
77631;BME280;66798;47.370;8.552;2023-04-25T10:04:48;96304.56;;;11.34;59.10
77631;BME280;66798;47.370;8.552;2023-04-25T10:07:15;96301.19;;;11.28;59.24
77631;BME280;66798;47.370;8.552;2023-04-25T10:09:42;96308.44;;;11.12;58.83
77631;BME280;66798;47.370;8.552;2023-04-25T10:12:11;96305.34;;;11.34;58.49
77631;BME280;66798;47.370;8.552;2023-04-25T10:14:38;96297.13;;;10.82;59.64
77631;BME280;66798;47.370;8.552;2023-04-25T10:17:03;96313.47;;;10.25;62.41
77631;BME280;66798;47.370;8.552;2023-04-25T10:19:29;96315.47;;;9.93;62.72
77631;BME280;66798;47.370;8.552;2023-04-25T10:24:59;96332.69;;;9.29;63.97
77631;BME280;66798;47.370;8.552;2023-04-25T10:27:27;96323.13;;;9.85;62.61
77631;BME280;66798;47.370;8.552;2023-04-25T10:30:04;96333.19;;;10.37;59.03
77631;BME280;66798;47.370;8.552;2023-04-25T10:32:31;96328.31;;;10.60;57.79
77631;BME280;66798;47.370;8.552;2023-04-25T10:35:11;96319.78;;;12.14;55.33
77631;BME280;66798;47.370;8.552;2023-04-25T10:37:37;96326.88;;;13.41;50.55
77631;BME280;66798;47.370;8.552;2023-04-25T10:40:10;96328.78;;;13.96;49.02
77631;BME280;66798;47.370;8.552;2023-04-25T10:42:36;96330.25;;;15.02;48.31
77631;BME280;66798;47.370;8.552;2023-04-25T10:45:05;96327.28;;;14.45;46.23
77631;BME280;66798;47.370;8.552;2023-04-25T10:47:43;96335.13;;;15.09;44.17
77631;BME280;66798;47.370;8.552;2023-04-25T10:50:14;96333.66;;;13.14;48.99
77631;BME280;66798;47.370;8.552;2023-04-25T10:52:41;96333.00;;;12.90;49.16
77631;BME280;66798;47.370;8.552;2023-04-25T10:55:07;96335.44;;;12.05;52.15
77631;BME280;66798;47.370;8.552;2023-04-25T10:57:41;96345.50;;;12.22;51.95
77631;BME280;66798;47.370;8.552;2023-04-25T11:00:11;96348.22;;;12.17;52.02
77631;BME280;66798;47.370;8.552;2023-04-25T11:02:41;96343.75;;;12.37;50.91
77631;BME280;66798;47.370;8.552;2023-04-25T11:05:09;96339.50;;;11.98;52.97
77631;BME280;66798;47.370;8.552;2023-04-25T11:07:51;96338.16;;;11.47;53.93
77631;BME280;66798;47.370;8.552;2023-04-25T11:10:18;96339.16;;;11.51;54.50
77631;BME280;66798;47.370;8.552;2023-04-25T11:12:45;96342.47;;;12.34;52.72
77631;BME280;66798;47.370;8.552;2023-04-25T11:15:11;96342.03;;;11.79;52.16
77631;BME280;66798;47.370;8.552;2023-04-25T11:17:37;96333.88;;;12.66;50.58
77631;BME280;66798;47.370;8.552;2023-04-25T11:20:05;96333.88;;;12.47;49.90
77631;BME280;66798;47.370;8.552;2023-04-25T11:22:38;96333.50;;;11.63;53.40
77631;BME280;66798;47.370;8.552;2023-04-25T11:25:07;96334.72;;;12.00;52.42
77631;BME280;66798;47.370;8.552;2023-04-25T11:27:33;96339.06;;;12.52;50.83
77631;BME280;66798;47.370;8.552;2023-04-25T11:29:58;96335.84;;;13.87;48.51
77631;BME280;66798;47.370;8.552;2023-04-25T11:32:24;96332.56;;;14.59;44.71
77631;BME280;66798;47.370;8.552;2023-04-25T11:34:50;96332.81;;;14.71;43.75
77631;BME280;66798;47.370;8.552;2023-04-25T11:37:15;96327.94;;;14.87;43.78
77631;BME280;66798;47.370;8.552;2023-04-25T11:39:44;96332.88;;;15.56;41.83
77631;BME280;66798;47.370;8.552;2023-04-25T11:42:11;96331.25;;;16.09;41.67
77631;BME280;66798;47.370;8.552;2023-04-25T11:44:38;96336.63;;;15.24;42.08
77631;BME280;66798;47.370;8.552;2023-04-25T11:47:04;96332.50;;;14.22;45.98
77631;BME280;66798;47.370;8.552;2023-04-25T11:49:31;96334.66;;;13.65;45.34
77631;BME280;66798;47.370;8.552;2023-04-25T11:51:57;96316.63;;;13.40;46.63
77631;BME280;66798;47.370;8.552;2023-04-25T11:54:22;96324.66;;;14.31;47.46
77631;BME280;66798;47.370;8.552;2023-04-25T11:56:48;96310.66;;;14.17;45.22
77631;BME280;66798;47.370;8.552;2023-04-25T11:59:14;96320.72;;;15.01;46.85
77631;BME280;66798;47.370;8.552;2023-04-25T12:01:48;96310.38;;;15.14;43.31
77631;BME280;66798;47.370;8.552;2023-04-25T12:04:17;96310.50;;;13.86;46.33
77631;BME280;66798;47.370;8.552;2023-04-25T12:06:44;96310.16;;;15.64;43.17
77631;BME280;66798;47.370;8.552;2023-04-25T12:09:13;96301.66;;;17.11;39.95
77631;BME280;66798;47.370;8.552;2023-04-25T12:11:42;96307.91;;;16.54;39.05
77631;BME280;66798;47.370;8.552;2023-04-25T12:14:09;96317.44;;;17.16;39.24
77631;BME280;66798;47.370;8.552;2023-04-25T12:16:46;96322.00;;;15.98;41.37
77631;BME280;66798;47.370;8.552;2023-04-25T12:19:19;96317.59;;;14.77;41.65
77631;BME280;66798;47.370;8.552;2023-04-25T12:21:46;96325.50;;;14.40;43.86
77631;BME280;66798;47.370;8.552;2023-04-25T12:24:14;96325.88;;;13.84;42.46
77631;BME280;66798;47.370;8.552;2023-04-25T12:27:05;96330.41;;;13.36;43.42
77631;BME280;66798;47.370;8.552;2023-04-25T12:29:32;96336.25;;;13.01;45.19
77631;BME280;66798;47.370;8.552;2023-04-25T12:31:58;96331.00;;;12.82;45.95
77631;BME280;66798;47.370;8.552;2023-04-25T12:34:25;96356.75;;;12.71;49.26
77631;BME280;66798;47.370;8.552;2023-04-25T12:36:52;96353.97;;;11.47;53.65
77631;BME280;66798;47.370;8.552;2023-04-25T12:39:19;96362.56;;;10.89;56.32
77631;BME280;66798;47.370;8.552;2023-04-25T12:41:46;96362.56;;;10.94;56.94
77631;BME280;66798;47.370;8.552;2023-04-25T12:44:12;96352.16;;;11.08;56.47
77631;BME280;66798;47.370;8.552;2023-04-25T12:46:38;96360.63;;;11.34;56.74
77631;BME280;66798;47.370;8.552;2023-04-25T12:49:05;96360.38;;;11.36;56.48
77631;BME280;66798;47.370;8.552;2023-04-25T12:51:32;96364.84;;;11.01;58.78
77631;BME280;66798;47.370;8.552;2023-04-25T12:54:02;96365.19;;;11.87;56.58
77631;BME280;66798;47.370;8.552;2023-04-25T12:56:29;96366.97;;;11.92;55.03
77631;BME280;66798;47.370;8.552;2023-04-25T12:58:54;96363.56;;;11.86;55.35
77631;BME280;66798;47.370;8.552;2023-04-25T13:01:21;96364.25;;;12.64;54.03
77631;BME280;66798;47.370;8.552;2023-04-25T13:03:46;96364.66;;;12.90;52.37
77631;BME280;66798;47.370;8.552;2023-04-25T13:06:13;96365.25;;;12.49;53.73
77631;BME280;66798;47.370;8.552;2023-04-25T13:08:39;96360.75;;;13.39;50.22
77631;BME280;66798;47.370;8.552;2023-04-25T13:11:05;96365.28;;;13.52;51.58
77631;BME280;66798;47.370;8.552;2023-04-25T13:13:31;96358.94;;;14.22;49.32
77631;BME280;66798;47.370;8.552;2023-04-25T13:15:58;96360.69;;;14.69;48.30
77631;BME280;66798;47.370;8.552;2023-04-25T13:18:23;96365.72;;;12.70;53.45
77631;BME280;66798;47.370;8.552;2023-04-25T13:20:52;96362.97;;;13.13;53.07
77631;BME280;66798;47.370;8.552;2023-04-25T13:23:18;96372.25;;;13.62;52.12
77631;BME280;66798;47.370;8.552;2023-04-25T13:25:45;96359.91;;;14.40;50.15
77631;BME280;66798;47.370;8.552;2023-04-25T13:28:10;96363.16;;;14.23;50.05
77631;BME280;66798;47.370;8.552;2023-04-25T13:30:36;96363.84;;;13.74;51.15
77631;BME280;66798;47.370;8.552;2023-04-25T13:33:02;96359.56;;;13.12;54.38
77631;BME280;66798;47.370;8.552;2023-04-25T13:35:29;96362.31;;;12.07;55.00
77631;BME280;66798;47.370;8.552;2023-04-25T13:37:55;96361.13;;;12.19;54.96
77631;BME280;66798;47.370;8.552;2023-04-25T13:40:21;96360.59;;;12.41;54.42
77631;BME280;66798;47.370;8.552;2023-04-25T13:42:47;96363.78;;;11.65;56.63
77631;BME280;66798;47.370;8.552;2023-04-25T13:45:12;96372.41;;;11.47;57.95
77631;BME280;66798;47.370;8.552;2023-04-25T13:47:38;96363.41;;;11.48;58.51
77631;BME280;66798;47.370;8.552;2023-04-25T13:50:04;96368.94;;;11.52;58.91
77631;BME280;66798;47.370;8.552;2023-04-25T13:52:33;96363.44;;;11.72;56.49
77631;BME280;66798;47.370;8.552;2023-04-25T13:54:59;96361.75;;;11.57;56.37
77631;BME280;66798;47.370;8.552;2023-04-25T13:57:24;96371.53;;;11.81;56.65
77631;BME280;66798;47.370;8.552;2023-04-25T13:59:50;96372.13;;;12.26;55.31
77631;BME280;66798;47.370;8.552;2023-04-25T14:02:16;96383.34;;;12.74;56.30
77631;BME280;66798;47.370;8.552;2023-04-25T14:04:42;96378.13;;;12.07;53.83
77631;BME280;66798;47.370;8.552;2023-04-25T14:07:07;96375.13;;;11.02;56.37
77631;BME280;66798;47.370;8.552;2023-04-25T14:09:33;96375.94;;;10.53;58.31
77631;BME280;66798;47.370;8.552;2023-04-25T14:11:59;96384.16;;;10.36;59.71
77631;BME280;66798;47.370;8.552;2023-04-25T14:14:25;96398.66;;;10.24;59.72
77631;BME280;66798;47.370;8.552;2023-04-25T14:16:51;96389.09;;;9.73;61.65
77631;BME280;66798;47.370;8.552;2023-04-25T14:19:20;96381.97;;;9.84;62.30
77631;BME280;66798;47.370;8.552;2023-04-25T14:21:46;96387.50;;;9.82;62.65
77631;BME280;66798;47.370;8.552;2023-04-25T14:24:13;96391.16;;;9.81;63.87
77631;BME280;66798;47.370;8.552;2023-04-25T14:26:38;96388.56;;;9.55;64.57
77631;BME280;66798;47.370;8.552;2023-04-25T14:29:05;96389.59;;;9.80;64.73
77631;BME280;66798;47.370;8.552;2023-04-25T14:31:31;96382.66;;;10.15;61.48
77631;BME280;66798;47.370;8.552;2023-04-25T14:33:56;96383.66;;;10.34;60.53
77631;BME280;66798;47.370;8.552;2023-04-25T14:36:22;96381.88;;;10.74;59.27
77631;BME280;66798;47.370;8.552;2023-04-25T14:38:47;96384.16;;;10.47;59.60
77631;BME280;66798;47.370;8.552;2023-04-25T14:41:13;96386.19;;;10.99;57.93
77631;BME280;66798;47.370;8.552;2023-04-25T14:43:38;96386.94;;;11.05;57.87
77631;BME280;66798;47.370;8.552;2023-04-25T14:46:06;96394.91;;;10.95;57.28
77631;BME280;66798;47.370;8.552;2023-04-25T14:48:32;96393.28;;;11.04;57.22
77631;BME280;66798;47.370;8.552;2023-04-25T14:50:59;96395.81;;;11.14;56.86
77631;BME280;66798;47.370;8.552;2023-04-25T14:53:25;96391.78;;;11.27;57.02
77631;BME280;66798;47.370;8.552;2023-04-25T14:55:51;96394.66;;;11.60;56.30
77631;BME280;66798;47.370;8.552;2023-04-25T14:58:16;96402.88;;;11.82;55.54
77631;BME280;66798;47.370;8.552;2023-04-25T15:00:42;96402.66;;;11.79;56.59
77631;BME280;66798;47.370;8.552;2023-04-25T15:03:08;96401.91;;;12.26;55.10
77631;BME280;66798;47.370;8.552;2023-04-25T15:05:34;96409.16;;;12.40;54.77
77631;BME280;66798;47.370;8.552;2023-04-25T15:08:01;96408.03;;;12.22;54.95
77631;BME280;66798;47.370;8.552;2023-04-25T15:10:26;96409.59;;;12.23;54.40
77631;BME280;66798;47.370;8.552;2023-04-25T15:12:53;96406.78;;;12.14;53.00
77631;BME280;66798;47.370;8.552;2023-04-25T15:15:19;96415.38;;;12.25;53.75
77631;BME280;66798;47.370;8.552;2023-04-25T15:17:44;96414.47;;;12.10;55.00
77631;BME280;66798;47.370;8.552;2023-04-25T15:20:13;96410.00;;;11.53;56.59
77631;BME280;66798;47.370;8.552;2023-04-25T15:22:41;96419.09;;;11.65;54.39
77631;BME280;66798;47.370;8.552;2023-04-25T15:25:08;96423.22;;;11.13;55.02
77631;BME280;66798;47.370;8.552;2023-04-25T15:27:38;96422.47;;;11.42;54.72
77631;BME280;66798;47.370;8.552;2023-04-25T15:30:07;96420.16;;;10.51;56.49
77631;BME280;66798;47.370;8.552;2023-04-25T15:32:33;96429.69;;;10.92;55.39
77631;BME280;66798;47.370;8.552;2023-04-25T15:35:01;96422.41;;;10.73;55.76
77631;BME280;66798;47.370;8.552;2023-04-25T15:37:28;96422.22;;;11.04;55.87
77631;BME280;66798;47.370;8.552;2023-04-25T15:40:11;96428.19;;;11.15;55.69
77631;BME280;66798;47.370;8.552;2023-04-25T15:42:38;96424.00;;;11.48;55.33
77631;BME280;66798;47.370;8.552;2023-04-25T15:45:05;96433.25;;;10.61;58.15
77631;BME280;66798;47.370;8.552;2023-04-25T15:47:32;96431.78;;;10.90;57.79
77631;BME280;66798;47.370;8.552;2023-04-25T15:49:58;96433.03;;;11.37;56.32
77631;BME280;66798;47.370;8.552;2023-04-25T15:52:24;96435.34;;;11.43;57.25
77631;BME280;66798;47.370;8.552;2023-04-25T15:54:50;96436.69;;;11.41;56.89
77631;BME280;66798;47.370;8.552;2023-04-25T15:57:15;96427.81;;;11.66;55.96
77631;BME280;66798;47.370;8.552;2023-04-25T15:59:41;96436.53;;;11.27;58.23
77631;BME280;66798;47.370;8.552;2023-04-25T16:02:07;96434.97;;;11.26;57.08
77631;BME280;66798;47.370;8.552;2023-04-25T16:04:32;96432.91;;;11.52;55.19
77631;BME280;66798;47.370;8.552;2023-04-25T16:07:02;96429.81;;;10.66;58.35
77631;BME280;66798;47.370;8.552;2023-04-25T16:09:28;96433.09;;;10.32;58.49
77631;BME280;66798;47.370;8.552;2023-04-25T16:11:54;96437.03;;;10.25;60.36
77631;BME280;66798;47.370;8.552;2023-04-25T16:14:19;96431.28;;;10.12;60.37
77631;BME280;66798;47.370;8.552;2023-04-25T16:16:45;96435.19;;;10.20;61.38
77631;BME280;66798;47.370;8.552;2023-04-25T16:19:10;96439.16;;;10.23;61.03
77631;BME280;66798;47.370;8.552;2023-04-25T16:21:36;96435.53;;;9.98;62.64
77631;BME280;66798;47.370;8.552;2023-04-25T16:24:02;96437.88;;;10.05;62.68
77631;BME280;66798;47.370;8.552;2023-04-25T16:26:28;96434.38;;;10.40;62.20
77631;BME280;66798;47.370;8.552;2023-04-25T16:28:53;96434.78;;;11.12;59.28
77631;BME280;66798;47.370;8.552;2023-04-25T16:31:19;96436.91;;;10.66;60.15
77631;BME280;66798;47.370;8.552;2023-04-25T16:33:44;96442.41;;;9.73;63.03
77631;BME280;66798;47.370;8.552;2023-04-25T16:36:10;96443.41;;;9.98;62.58
77631;BME280;66798;47.370;8.552;2023-04-25T16:38:38;96443.72;;;9.66;62.81
77631;BME280;66798;47.370;8.552;2023-04-25T16:41:06;96443.19;;;9.38;64.22
77631;BME280;66798;47.370;8.552;2023-04-25T16:43:32;96440.84;;;9.47;64.53
77631;BME280;66798;47.370;8.552;2023-04-25T16:45:58;96440.56;;;9.38;64.26
77631;BME280;66798;47.370;8.552;2023-04-25T16:48:24;96438.72;;;9.33;64.94
77631;BME280;66798;47.370;8.552;2023-04-25T16:50:51;96437.94;;;9.38;64.49
77631;BME280;66798;47.370;8.552;2023-04-25T16:53:17;96423.22;;;9.63;64.43
77631;BME280;66798;47.370;8.552;2023-04-25T16:55:43;96435.59;;;9.47;64.56
77631;BME280;66798;47.370;8.552;2023-04-25T16:58:09;96438.97;;;9.83;63.93
77631;BME280;66798;47.370;8.552;2023-04-25T17:00:39;96426.69;;;9.32;64.21
77631;BME280;66798;47.370;8.552;2023-04-25T17:03:04;96426.66;;;9.43;64.16
77631;BME280;66798;47.370;8.552;2023-04-25T17:05:30;96437.69;;;9.40;63.85
77631;BME280;66798;47.370;8.552;2023-04-25T17:07:55;96452.66;;;9.54;64.23
77631;BME280;66798;47.370;8.552;2023-04-25T17:10:21;96472.31;;;9.36;65.67
77631;BME280;66798;47.370;8.552;2023-04-25T17:12:47;96458.13;;;9.02;65.61
77631;BME280;66798;47.370;8.552;2023-04-25T17:15:12;96463.38;;;9.17;65.36
77631;BME280;66798;47.370;8.552;2023-04-25T17:17:38;96466.28;;;9.26;64.23
77631;BME280;66798;47.370;8.552;2023-04-25T17:20:04;96466.78;;;9.07;64.98
77631;BME280;66798;47.370;8.552;2023-04-25T17:22:35;96475.97;;;9.15;65.21
77631;BME280;66798;47.370;8.552;2023-04-25T17:25:05;96473.34;;;9.10;66.10
77631;BME280;66798;47.370;8.552;2023-04-25T17:27:32;96476.25;;;9.29;64.97
77631;BME280;66798;47.370;8.552;2023-04-25T17:29:58;96471.28;;;9.53;65.65
77631;BME280;66798;47.370;8.552;2023-04-25T17:32:23;96475.50;;;9.64;66.31
77631;BME280;66798;47.370;8.552;2023-04-25T17:34:49;96481.28;;;9.66;64.30
77631;BME280;66798;47.370;8.552;2023-04-25T17:37:15;96483.13;;;9.66;64.54
77631;BME280;66798;47.370;8.552;2023-04-25T17:39:44;96490.19;;;9.50;64.72
77631;BME280;66798;47.370;8.552;2023-04-25T17:42:10;96493.06;;;9.18;65.59
77631;BME280;66798;47.370;8.552;2023-04-25T17:44:40;96494.88;;;9.17;64.26
77631;BME280;66798;47.370;8.552;2023-04-25T17:47:06;96486.75;;;9.19;65.73
77631;BME280;66798;47.370;8.552;2023-04-25T17:49:32;96496.72;;;9.17;65.45
77631;BME280;66798;47.370;8.552;2023-04-25T17:51:59;96498.22;;;8.87;64.73
77631;BME280;66798;47.370;8.552;2023-04-25T17:54:25;96499.25;;;8.81;64.35
77631;BME280;66798;47.370;8.552;2023-04-25T17:56:52;96492.47;;;8.95;62.71
77631;BME280;66798;47.370;8.552;2023-04-25T17:59:17;96494.31;;;9.00;61.21
77631;BME280;66798;47.370;8.552;2023-04-25T18:01:43;96504.53;;;8.96;61.12
77631;BME280;66798;47.370;8.552;2023-04-25T18:04:09;96506.88;;;8.87;62.54
77631;BME280;66798;47.370;8.552;2023-04-25T18:06:34;96508.19;;;8.90;63.89
77631;BME280;66798;47.370;8.552;2023-04-25T18:09:01;96517.34;;;8.82;63.58
77631;BME280;66798;47.370;8.552;2023-04-25T18:11:28;96522.31;;;8.79;62.91
77631;BME280;66798;47.370;8.552;2023-04-25T18:13:54;96528.09;;;8.86;63.88
77631;BME280;66798;47.370;8.552;2023-04-25T18:16:20;96533.78;;;8.67;67.30
77631;BME280;66798;47.370;8.552;2023-04-25T18:18:47;96537.25;;;8.30;70.25
77631;BME280;66798;47.370;8.552;2023-04-25T18:21:20;96548.53;;;8.36;70.79
77631;BME280;66798;47.370;8.552;2023-04-25T18:23:45;96547.38;;;8.17;72.72
77631;BME280;66798;47.370;8.552;2023-04-25T18:26:11;96549.06;;;7.96;74.52
77631;BME280;66798;47.370;8.552;2023-04-25T18:28:36;96552.00;;;8.04;74.74
77631;BME280;66798;47.370;8.552;2023-04-25T18:31:02;96560.84;;;7.98;74.77
77631;BME280;66798;47.370;8.552;2023-04-25T18:33:28;96564.94;;;7.84;75.78
77631;BME280;66798;47.370;8.552;2023-04-25T18:35:54;96572.00;;;7.83;75.82
77631;BME280;66798;47.370;8.552;2023-04-25T18:38:20;96571.03;;;7.90;75.38
77631;BME280;66798;47.370;8.552;2023-04-25T18:40:46;96577.16;;;7.73;75.89
77631;BME280;66798;47.370;8.552;2023-04-25T18:43:13;96579.91;;;7.88;75.76
77631;BME280;66798;47.370;8.552;2023-04-25T18:45:38;96573.41;;;7.64;76.57
77631;BME280;66798;47.370;8.552;2023-04-25T18:48:04;96584.06;;;7.57;76.47
77631;BME280;66798;47.370;8.552;2023-04-25T18:50:29;96589.56;;;7.56;75.86
77631;BME280;66798;47.370;8.552;2023-04-25T18:52:57;96586.84;;;7.45;76.18
77631;BME280;66798;47.370;8.552;2023-04-25T18:55:23;96590.88;;;7.53;76.74
77631;BME280;66798;47.370;8.552;2023-04-25T18:57:48;96595.94;;;7.65;75.89
77631;BME280;66798;47.370;8.552;2023-04-25T19:00:14;96596.47;;;7.67;75.10
77631;BME280;66798;47.370;8.552;2023-04-25T19:02:41;96604.09;;;7.69;75.47
77631;BME280;66798;47.370;8.552;2023-04-25T19:05:07;96604.38;;;7.72;75.19
77631;BME280;66798;47.370;8.552;2023-04-25T19:07:36;96611.75;;;7.75;75.25
77631;BME280;66798;47.370;8.552;2023-04-25T19:10:05;96600.81;;;7.83;74.45
77631;BME280;66798;47.370;8.552;2023-04-25T19:12:32;96611.16;;;7.68;74.66
77631;BME280;66798;47.370;8.552;2023-04-25T19:14:57;96606.25;;;7.77;75.07
77631;BME280;66798;47.370;8.552;2023-04-25T19:17:23;96599.94;;;7.73;75.03
77631;BME280;66798;47.370;8.552;2023-04-25T19:19:48;96608.03;;;7.71;75.15
77631;BME280;66798;47.370;8.552;2023-04-25T19:22:15;96616.81;;;7.60;75.70
77631;BME280;66798;47.370;8.552;2023-04-25T19:24:40;96618.41;;;7.61;75.28
77631;BME280;66798;47.370;8.552;2023-04-25T19:27:05;96619.97;;;7.62;74.94